sensor_id;sensor_type;location;lat;lon;timestamp;temperature;humidity
3300;DHT22;1662;49.310;8.134;2023-05-09T00:00:14;15.50;99.90
3300;DHT22;1662;49.310;8.134;2023-05-09T00:02:40;15.50;99.90
3300;DHT22;1662;49.310;8.134;2023-05-09T00:05:10;15.50;99.90
3300;DHT22;1662;49.310;8.134;2023-05-09T00:07:36;15.50;99.90
3300;DHT22;1662;49.310;8.134;2023-05-09T00:10:02;15.50;99.90
3300;DHT22;1662;49.310;8.134;2023-05-09T00:12:28;15.50;99.90
3300;DHT22;1662;49.310;8.134;2023-05-09T00:14:54;15.50;99.90
3300;DHT22;1662;49.310;8.134;2023-05-09T00:17:24;15.40;99.90
3300;DHT22;1662;49.310;8.134;2023-05-09T00:19:51;15.40;99.90
3300;DHT22;1662;49.310;8.134;2023-05-09T00:22:17;15.80;99.90
3300;DHT22;1662;49.310;8.134;2023-05-09T00:24:46;15.30;99.90
3300;DHT22;1662;49.310;8.134;2023-05-09T00:27:11;15.20;99.90
3300;DHT22;1662;49.310;8.134;2023-05-09T00:29:37;15.30;99.90
3300;DHT22;1662;49.310;8.134;2023-05-09T00:32:03;15.30;99.90
3300;DHT22;1662;49.310;8.134;2023-05-09T00:34:29;15.30;99.90
3300;DHT22;1662;49.310;8.134;2023-05-09T00:36:54;15.20;99.90
3300;DHT22;1662;49.310;8.134;2023-05-09T00:39:20;15.20;99.90
3300;DHT22;1662;49.310;8.134;2023-05-09T00:41:45;15.20;99.90
3300;DHT22;1662;49.310;8.134;2023-05-09T00:44:14;15.20;99.90
3300;DHT22;1662;49.310;8.134;2023-05-09T00:46:40;15.20;99.90
3300;DHT22;1662;49.310;8.134;2023-05-09T00:49:05;15.50;99.90
3300;DHT22;1662;49.310;8.134;2023-05-09T00:51:32;15.30;99.90
3300;DHT22;1662;49.310;8.134;2023-05-09T00:54:01;15.20;99.90
3300;DHT22;1662;49.310;8.134;2023-05-09T00:56:26;15.40;99.90
3300;DHT22;1662;49.310;8.134;2023-05-09T00:58:52;15.20;99.90
3300;DHT22;1662;49.310;8.134;2023-05-09T01:01:19;15.20;99.90
3300;DHT22;1662;49.310;8.134;2023-05-09T01:03:46;15.20;99.90
3300;DHT22;1662;49.310;8.134;2023-05-09T01:07:21;15.10;99.90
3300;DHT22;1662;49.310;8.134;2023-05-09T01:09:34;15.10;99.90
3300;DHT22;1662;49.310;8.134;2023-05-09T01:14:59;15.10;99.90
3300;DHT22;1662;49.310;8.134;2023-05-09T01:17:52;15.10;99.90
3300;DHT22;1662;49.310;8.134;2023-05-09T01:20:43;15.10;99.90
3300;DHT22;1662;49.310;8.134;2023-05-09T01:29:12;15.00;99.90
3300;DHT22;1662;49.310;8.134;2023-05-09T01:31:40;15.00;99.90
3300;DHT22;1662;49.310;8.134;2023-05-09T01:34:10;15.20;99.90
3300;DHT22;1662;49.310;8.134;2023-05-09T01:36:39;15.00;99.90
3300;DHT22;1662;49.310;8.134;2023-05-09T01:39:12;15.00;99.90
3300;DHT22;1662;49.310;8.134;2023-05-09T01:41:47;15.00;99.90
3300;DHT22;1662;49.310;8.134;2023-05-09T01:44:14;14.90;99.90
3300;DHT22;1662;49.310;8.134;2023-05-09T01:46:41;14.90;99.90
3300;DHT22;1662;49.310;8.134;2023-05-09T01:49:08;14.80;99.90
3300;DHT22;1662;49.310;8.134;2023-05-09T01:51:35;14.80;99.90
3300;DHT22;1662;49.310;8.134;2023-05-09T01:54:05;14.80;99.90
3300;DHT22;1662;49.310;8.134;2023-05-09T01:56:31;14.80;99.90
3300;DHT22;1662;49.310;8.134;2023-05-09T01:58:58;14.80;99.90
3300;DHT22;1662;49.310;8.134;2023-05-09T02:01:25;14.80;99.90
3300;DHT22;1662;49.310;8.134;2023-05-09T02:03:51;14.80;99.90
3300;DHT22;1662;49.310;8.134;2023-05-09T02:06:21;14.70;99.90
3300;DHT22;1662;49.310;8.134;2023-05-09T02:08:48;14.70;99.90
3300;DHT22;1662;49.310;8.134;2023-05-09T02:11:14;14.80;99.90
3300;DHT22;1662;49.310;8.134;2023-05-09T02:13:40;14.70;99.90
3300;DHT22;1662;49.310;8.134;2023-05-09T02:16:06;14.70;99.90
3300;DHT22;1662;49.310;8.134;2023-05-09T02:18:32;14.70;99.90
3300;DHT22;1662;49.310;8.134;2023-05-09T02:20:59;14.70;99.90
3300;DHT22;1662;49.310;8.134;2023-05-09T02:23:25;14.70;99.90
3300;DHT22;1662;49.310;8.134;2023-05-09T02:25:51;14.70;99.90
3300;DHT22;1662;49.310;8.134;2023-05-09T02:28:22;14.70;99.90
3300;DHT22;1662;49.310;8.134;2023-05-09T02:30:50;14.60;99.90
3300;DHT22;1662;49.310;8.134;2023-05-09T02:33:16;14.60;99.90
3300;DHT22;1662;49.310;8.134;2023-05-09T02:35:44;14.60;99.90
3300;DHT22;1662;49.310;8.134;2023-05-09T02:38:11;15.10;99.90
3300;DHT22;1662;49.310;8.134;2023-05-09T02:40:38;14.70;99.90
3300;DHT22;1662;49.310;8.134;2023-05-09T02:43:04;14.60;99.90
3300;DHT22;1662;49.310;8.134;2023-05-09T02:45:30;14.60;99.90
3300;DHT22;1662;49.310;8.134;2023-05-09T02:47:56;14.60;99.90
3300;DHT22;1662;49.310;8.134;2023-05-09T02:50:22;14.60;99.90
3300;DHT22;1662;49.310;8.134;2023-05-09T02:52:47;14.60;99.90
3300;DHT22;1662;49.310;8.134;2023-05-09T02:55:13;14.70;99.90
3300;DHT22;1662;49.310;8.134;2023-05-09T02:57:38;14.60;99.90
3300;DHT22;1662;49.310;8.134;2023-05-09T03:00:05;14.50;99.90
3300;DHT22;1662;49.310;8.134;2023-05-09T03:02:37;14.60;99.90
3300;DHT22;1662;49.310;8.134;2023-05-09T03:05:03;14.70;99.90
3300;DHT22;1662;49.310;8.134;2023-05-09T03:07:29;14.60;99.90
3300;DHT22;1662;49.310;8.134;2023-05-09T03:09:55;14.60;99.90
3300;DHT22;1662;49.310;8.134;2023-05-09T03:12:20;14.60;99.90
3300;DHT22;1662;49.310;8.134;2023-05-09T03:14:46;14.60;99.90
3300;DHT22;1662;49.310;8.134;2023-05-09T03:17:12;14.60;99.90
3300;DHT22;1662;49.310;8.134;2023-05-09T03:19:41;14.60;99.90
3300;DHT22;1662;49.310;8.134;2023-05-09T03:22:07;14.60;99.90
3300;DHT22;1662;49.310;8.134;2023-05-09T03:24:33;14.60;99.90
3300;DHT22;1662;49.310;8.134;2023-05-09T03:26:58;14.60;99.90
3300;DHT22;1662;49.310;8.134;2023-05-09T03:29:24;14.60;99.90
3300;DHT22;1662;49.310;8.134;2023-05-09T03:31:50;14.60;99.90
3300;DHT22;1662;49.310;8.134;2023-05-09T03:34:16;14.60;99.90
3300;DHT22;1662;49.310;8.134;2023-05-09T03:36:44;15.00;99.90
3300;DHT22;1662;49.310;8.134;2023-05-09T03:39:10;14.60;99.90
3300;DHT22;1662;49.310;8.134;2023-05-09T03:41:36;14.50;99.90
3300;DHT22;1662;49.310;8.134;2023-05-09T03:44:04;14.50;99.90
3300;DHT22;1662;49.310;8.134;2023-05-09T03:46:30;14.50;99.90
3300;DHT22;1662;49.310;8.134;2023-05-09T03:48:55;14.50;99.90
3300;DHT22;1662;49.310;8.134;2023-05-09T03:51:21;14.50;99.90
3300;DHT22;1662;49.310;8.134;2023-05-09T03:53:47;14.50;99.90
3300;DHT22;1662;49.310;8.134;2023-05-09T03:56:13;14.50;99.90
3300;DHT22;1662;49.310;8.134;2023-05-09T03:58:38;14.50;99.90
3300;DHT22;1662;49.310;8.134;2023-05-09T04:01:04;14.60;99.90
3300;DHT22;1662;49.310;8.134;2023-05-09T04:03:30;14.50;99.90
3300;DHT22;1662;49.310;8.134;2023-05-09T04:05:56;14.50;99.90
3300;DHT22;1662;49.310;8.134;2023-05-09T04:08:25;14.50;99.90
3300;DHT22;1662;49.310;8.134;2023-05-09T04:10:52;14.40;99.90
3300;DHT22;1662;49.310;8.134;2023-05-09T04:13:17;14.50;99.90
3300;DHT22;1662;49.310;8.134;2023-05-09T04:15:43;14.40;99.90
3300;DHT22;1662;49.310;8.134;2023-05-09T04:18:08;14.50;99.90
3300;DHT22;1662;49.310;8.134;2023-05-09T04:20:34;14.60;99.90
3300;DHT22;1662;49.310;8.134;2023-05-09T04:23:00;14.40;99.90
3300;DHT22;1662;49.310;8.134;2023-05-09T04:25:25;14.50;99.90
3300;DHT22;1662;49.310;8.134;2023-05-09T04:27:51;14.50;99.90
3300;DHT22;1662;49.310;8.134;2023-05-09T04:30:17;14.50;99.90
3300;DHT22;1662;49.310;8.134;2023-05-09T04:32:43;14.50;99.90
3300;DHT22;1662;49.310;8.134;2023-05-09T04:35:12;14.50;99.90
3300;DHT22;1662;49.310;8.134;2023-05-09T04:37:38;14.60;99.90
3300;DHT22;1662;49.310;8.134;2023-05-09T04:40:04;14.50;99.90
3300;DHT22;1662;49.310;8.134;2023-05-09T04:42:30;14.50;99.90
3300;DHT22;1662;49.310;8.134;2023-05-09T04:45:00;14.50;99.90
3300;DHT22;1662;49.310;8.134;2023-05-09T04:47:25;14.60;99.90
3300;DHT22;1662;49.310;8.134;2023-05-09T04:49:51;14.50;99.90
3300;DHT22;1662;49.310;8.134;2023-05-09T04:52:17;14.60;99.90
3300;DHT22;1662;49.310;8.134;2023-05-09T04:54:42;14.60;99.90
3300;DHT22;1662;49.310;8.134;2023-05-09T04:57:08;14.50;99.90
3300;DHT22;1662;49.310;8.134;2023-05-09T04:59:34;14.60;99.90
3300;DHT22;1662;49.310;8.134;2023-05-09T05:02:00;14.60;99.90
3300;DHT22;1662;49.310;8.134;2023-05-09T05:04:26;14.70;99.90
3300;DHT22;1662;49.310;8.134;2023-05-09T05:06:52;14.70;99.90
3300;DHT22;1662;49.310;8.134;2023-05-09T05:09:18;14.80;99.90
3300;DHT22;1662;49.310;8.134;2023-05-09T05:11:43;14.60;99.90
3300;DHT22;1662;49.310;8.134;2023-05-09T05:14:09;14.80;99.90
3300;DHT22;1662;49.310;8.134;2023-05-09T05:16:35;14.80;99.90
3300;DHT22;1662;49.310;8.134;2023-05-09T05:19:00;14.80;99.90
3300;DHT22;1662;49.310;8.134;2023-05-09T05:21:26;14.90;99.90
3300;DHT22;1662;49.310;8.134;2023-05-09T05:23:51;14.90;99.90
3300;DHT22;1662;49.310;8.134;2023-05-09T05:26:17;14.90;99.90
3300;DHT22;1662;49.310;8.134;2023-05-09T05:28:42;14.90;99.90
3300;DHT22;1662;49.310;8.134;2023-05-09T05:31:08;14.70;99.90
3300;DHT22;1662;49.310;8.134;2023-05-09T05:33:34;14.90;99.90
3300;DHT22;1662;49.310;8.134;2023-05-09T05:35:59;15.10;99.90
3300;DHT22;1662;49.310;8.134;2023-05-09T05:38:25;14.90;99.90
3300;DHT22;1662;49.310;8.134;2023-05-09T05:40:50;15.00;99.90
3300;DHT22;1662;49.310;8.134;2023-05-09T05:43:16;15.00;99.90
3300;DHT22;1662;49.310;8.134;2023-05-09T05:45:41;15.10;99.90
3300;DHT22;1662;49.310;8.134;2023-05-09T05:48:07;15.10;99.90
3300;DHT22;1662;49.310;8.134;2023-05-09T05:50:32;15.10;99.90
3300;DHT22;1662;49.310;8.134;2023-05-09T05:52:58;15.00;99.90
3300;DHT22;1662;49.310;8.134;2023-05-09T05:55:24;15.10;99.90
3300;DHT22;1662;49.310;8.134;2023-05-09T05:57:52;15.20;99.90
3300;DHT22;1662;49.310;8.134;2023-05-09T06:00:20;15.20;99.90
3300;DHT22;1662;49.310;8.134;2023-05-09T06:02:46;15.20;99.90
3300;DHT22;1662;49.310;8.134;2023-05-09T06:05:12;15.30;99.90
3300;DHT22;1662;49.310;8.134;2023-05-09T06:07:38;15.30;99.90
3300;DHT22;1662;49.310;8.134;2023-05-09T06:10:06;15.30;99.90
3300;DHT22;1662;49.310;8.134;2023-05-09T06:12:32;15.40;99.90
3300;DHT22;1662;49.310;8.134;2023-05-09T06:14:58;15.40;99.90
3300;DHT22;1662;49.310;8.134;2023-05-09T06:17:23;15.30;99.90
3300;DHT22;1662;49.310;8.134;2023-05-09T06:19:49;15.30;99.90
3300;DHT22;1662;49.310;8.134;2023-05-09T06:22:14;15.50;99.90
3300;DHT22;1662;49.310;8.134;2023-05-09T06:24:40;15.40;99.90
3300;DHT22;1662;49.310;8.134;2023-05-09T06:27:06;15.30;99.90
3300;DHT22;1662;49.310;8.134;2023-05-09T06:29:31;15.40;99.90
3300;DHT22;1662;49.310;8.134;2023-05-09T06:31:57;15.40;99.90
3300;DHT22;1662;49.310;8.134;2023-05-09T06:34:23;15.50;99.90
3300;DHT22;1662;49.310;8.134;2023-05-09T06:36:48;15.50;99.90
3300;DHT22;1662;49.310;8.134;2023-05-09T06:39:14;15.60;99.90
3300;DHT22;1662;49.310;8.134;2023-05-09T06:41:39;15.50;99.90
3300;DHT22;1662;49.310;8.134;2023-05-09T06:44:05;15.60;99.90
3300;DHT22;1662;49.310;8.134;2023-05-09T06:46:31;15.70;99.90
3300;DHT22;1662;49.310;8.134;2023-05-09T06:48:57;15.70;99.90
3300;DHT22;1662;49.310;8.134;2023-05-09T06:51:22;15.80;99.90
3300;DHT22;1662;49.310;8.134;2023-05-09T06:53:48;15.90;99.90
3300;DHT22;1662;49.310;8.134;2023-05-09T06:56:13;16.00;99.90
3300;DHT22;1662;49.310;8.134;2023-05-09T06:58:39;16.00;99.90
3300;DHT22;1662;49.310;8.134;2023-05-09T07:01:05;16.00;99.90
3300;DHT22;1662;49.310;8.134;2023-05-09T07:03:30;15.90;99.90
3300;DHT22;1662;49.310;8.134;2023-05-09T07:05:56;16.00;99.90
3300;DHT22;1662;49.310;8.134;2023-05-09T07:08:24;16.00;99.90
3300;DHT22;1662;49.310;8.134;2023-05-09T07:10:49;16.00;99.90
3300;DHT22;1662;49.310;8.134;2023-05-09T07:13:15;16.00;99.90
3300;DHT22;1662;49.310;8.134;2023-05-09T07:15:40;16.00;99.90
3300;DHT22;1662;49.310;8.134;2023-05-09T07:18:06;16.00;99.90
3300;DHT22;1662;49.310;8.134;2023-05-09T07:20:32;16.00;99.90
3300;DHT22;1662;49.310;8.134;2023-05-09T07:22:58;16.00;99.90
3300;DHT22;1662;49.310;8.134;2023-05-09T07:25:23;16.00;99.90
3300;DHT22;1662;49.310;8.134;2023-05-09T07:27:49;16.00;99.90
3300;DHT22;1662;49.310;8.134;2023-05-09T07:30:15;16.10;99.90
3300;DHT22;1662;49.310;8.134;2023-05-09T07:32:40;16.10;99.90
3300;DHT22;1662;49.310;8.134;2023-05-09T07:35:06;16.10;99.90
3300;DHT22;1662;49.310;8.134;2023-05-09T07:37:32;16.20;99.90
3300;DHT22;1662;49.310;8.134;2023-05-09T07:39:58;16.20;99.90
3300;DHT22;1662;49.310;8.134;2023-05-09T07:42:23;16.30;99.90
3300;DHT22;1662;49.310;8.134;2023-05-09T07:44:49;16.30;99.90
3300;DHT22;1662;49.310;8.134;2023-05-09T07:47:15;16.30;99.90
3300;DHT22;1662;49.310;8.134;2023-05-09T07:49:40;16.40;99.90
3300;DHT22;1662;49.310;8.134;2023-05-09T07:52:07;16.40;99.90
3300;DHT22;1662;49.310;8.134;2023-05-09T07:54:33;16.40;99.90
3300;DHT22;1662;49.310;8.134;2023-05-09T07:56:59;16.40;99.90
3300;DHT22;1662;49.310;8.134;2023-05-09T07:59:24;16.40;99.90
3300;DHT22;1662;49.310;8.134;2023-05-09T08:01:50;16.40;99.90
3300;DHT22;1662;49.310;8.134;2023-05-09T08:04:16;16.50;99.90
3300;DHT22;1662;49.310;8.134;2023-05-09T08:06:43;16.50;99.90
3300;DHT22;1662;49.310;8.134;2023-05-09T08:09:09;16.60;99.90
3300;DHT22;1662;49.310;8.134;2023-05-09T08:11:37;17.30;99.90
3300;DHT22;1662;49.310;8.134;2023-05-09T08:14:03;16.70;99.90
3300;DHT22;1662;49.310;8.134;2023-05-09T08:16:28;16.80;99.90
3300;DHT22;1662;49.310;8.134;2023-05-09T08:18:54;16.90;99.90
3300;DHT22;1662;49.310;8.134;2023-05-09T08:21:21;16.90;99.90
3300;DHT22;1662;49.310;8.134;2023-05-09T08:23:46;16.90;99.90
3300;DHT22;1662;49.310;8.134;2023-05-09T08:26:12;17.00;99.90
3300;DHT22;1662;49.310;8.134;2023-05-09T08:28:38;17.10;99.90
3300;DHT22;1662;49.310;8.134;2023-05-09T08:31:03;17.20;99.90
3300;DHT22;1662;49.310;8.134;2023-05-09T08:33:29;17.30;99.90
3300;DHT22;1662;49.310;8.134;2023-05-09T08:35:54;17.40;99.90
3300;DHT22;1662;49.310;8.134;2023-05-09T08:38:21;17.50;99.90
3300;DHT22;1662;49.310;8.134;2023-05-09T08:40:48;17.70;99.90
3300;DHT22;1662;49.310;8.134;2023-05-09T08:43:15;17.80;99.90
3300;DHT22;1662;49.310;8.134;2023-05-09T08:45:53;17.90;99.90
3300;DHT22;1662;49.310;8.134;2023-05-09T08:48:20;17.90;99.90
3300;DHT22;1662;49.310;8.134;2023-05-09T08:50:47;17.90;99.90
3300;DHT22;1662;49.310;8.134;2023-05-09T08:53:13;18.00;99.90
3300;DHT22;1662;49.310;8.134;2023-05-09T08:55:39;18.10;99.90
3300;DHT22;1662;49.310;8.134;2023-05-09T08:58:05;18.10;99.90
3300;DHT22;1662;49.310;8.134;2023-05-09T09:00:32;18.20;99.90
3300;DHT22;1662;49.310;8.134;2023-05-09T09:03:01;18.20;99.90
3300;DHT22;1662;49.310;8.134;2023-05-09T09:05:29;18.30;99.90
3300;DHT22;1662;49.310;8.134;2023-05-09T09:07:56;18.30;99.90
3300;DHT22;1662;49.310;8.134;2023-05-09T09:10:22;18.40;99.90
3300;DHT22;1662;49.310;8.134;2023-05-09T09:12:52;18.40;99.90
3300;DHT22;1662;49.310;8.134;2023-05-09T09:15:19;18.50;99.90
3300;DHT22;1662;49.310;8.134;2023-05-09T09:17:47;18.60;99.90
3300;DHT22;1662;49.310;8.134;2023-05-09T09:20:15;18.70;99.90
3300;DHT22;1662;49.310;8.134;2023-05-09T09:22:43;18.70;99.90
3300;DHT22;1662;49.310;8.134;2023-05-09T09:25:12;18.80;99.90
3300;DHT22;1662;49.310;8.134;2023-05-09T09:27:40;18.80;99.90
3300;DHT22;1662;49.310;8.134;2023-05-09T09:30:10;18.80;99.90
3300;DHT22;1662;49.310;8.134;2023-05-09T09:32:36;18.70;99.90
3300;DHT22;1662;49.310;8.134;2023-05-09T09:35:08;18.70;99.90
3300;DHT22;1662;49.310;8.134;2023-05-09T09:37:35;18.70;99.90
3300;DHT22;1662;49.310;8.134;2023-05-09T09:40:01;18.60;99.90
3300;DHT22;1662;49.310;8.134;2023-05-09T09:42:43;18.60;99.90
3300;DHT22;1662;49.310;8.134;2023-05-09T09:45:17;18.60;99.90
3300;DHT22;1662;49.310;8.134;2023-05-09T09:47:43;18.60;99.90
3300;DHT22;1662;49.310;8.134;2023-05-09T09:50:19;18.60;99.90
3300;DHT22;1662;49.310;8.134;2023-05-09T09:52:54;18.60;99.90
3300;DHT22;1662;49.310;8.134;2023-05-09T09:55:23;18.60;99.90
3300;DHT22;1662;49.310;8.134;2023-05-09T09:57:49;18.60;99.90
3300;DHT22;1662;49.310;8.134;2023-05-09T10:00:23;18.70;99.90
3300;DHT22;1662;49.310;8.134;2023-05-09T10:02:51;18.70;99.90
3300;DHT22;1662;49.310;8.134;2023-05-09T10:05:25;18.60;99.90
3300;DHT22;1662;49.310;8.134;2023-05-09T10:07:56;18.60;99.90
3300;DHT22;1662;49.310;8.134;2023-05-09T10:10:33;18.60;99.90
3300;DHT22;1662;49.310;8.134;2023-05-09T10:13:03;18.60;99.90
3300;DHT22;1662;49.310;8.134;2023-05-09T10:15:32;18.50;99.90
3300;DHT22;1662;49.310;8.134;2023-05-09T10:18:02;18.50;99.90
3300;DHT22;1662;49.310;8.134;2023-05-09T10:20:29;18.50;99.90
3300;DHT22;1662;49.310;8.134;2023-05-09T10:22:59;18.60;99.90
3300;DHT22;1662;49.310;8.134;2023-05-09T10:25:32;18.50;99.90
3300;DHT22;1662;49.310;8.134;2023-05-09T10:28:00;18.50;99.90
3300;DHT22;1662;49.310;8.134;2023-05-09T10:30:37;18.50;99.90
3300;DHT22;1662;49.310;8.134;2023-05-09T10:33:09;18.50;99.90
3300;DHT22;1662;49.310;8.134;2023-05-09T10:35:40;18.40;99.90
3300;DHT22;1662;49.310;8.134;2023-05-09T10:38:08;18.30;99.90
3300;DHT22;1662;49.310;8.134;2023-05-09T10:40:37;18.30;99.90
3300;DHT22;1662;49.310;8.134;2023-05-09T10:43:02;18.30;99.90
3300;DHT22;1662;49.310;8.134;2023-05-09T10:45:29;18.30;99.90
3300;DHT22;1662;49.310;8.134;2023-05-09T10:47:55;18.30;99.90
3300;DHT22;1662;49.310;8.134;2023-05-09T10:50:25;18.30;99.90
3300;DHT22;1662;49.310;8.134;2023-05-09T10:53:11;18.30;99.90
3300;DHT22;1662;49.310;8.134;2023-05-09T10:58:27;18.40;99.90
3300;DHT22;1662;49.310;8.134;2023-05-09T11:00:58;18.50;99.90
3300;DHT22;1662;49.310;8.134;2023-05-09T11:03:25;18.50;99.90
3300;DHT22;1662;49.310;8.134;2023-05-09T11:05:53;18.50;99.90
3300;DHT22;1662;49.310;8.134;2023-05-09T11:08:20;18.50;99.90
3300;DHT22;1662;49.310;8.134;2023-05-09T11:10:47;18.50;99.90
3300;DHT22;1662;49.310;8.134;2023-05-09T11:13:17;18.60;99.90
3300;DHT22;1662;49.310;8.134;2023-05-09T11:18:21;18.60;99.90
3300;DHT22;1662;49.310;8.134;2023-05-09T11:20:48;18.70;99.90
3300;DHT22;1662;49.310;8.134;2023-05-09T11:23:40;18.80;99.90
3300;DHT22;1662;49.310;8.134;2023-05-09T11:26:08;18.90;99.90
3300;DHT22;1662;49.310;8.134;2023-05-09T11:28:37;19.00;99.90
3300;DHT22;1662;49.310;8.134;2023-05-09T11:31:13;19.20;99.90
3300;DHT22;1662;49.310;8.134;2023-05-09T11:33:40;19.30;99.90
3300;DHT22;1662;49.310;8.134;2023-05-09T11:36:20;19.30;99.90
3300;DHT22;1662;49.310;8.134;2023-05-09T11:39:00;19.40;99.90
3300;DHT22;1662;49.310;8.134;2023-05-09T11:41:34;19.40;99.90
3300;DHT22;1662;49.310;8.134;2023-05-09T11:44:12;19.40;99.90
3300;DHT22;1662;49.310;8.134;2023-05-09T11:46:38;19.40;99.90
3300;DHT22;1662;49.310;8.134;2023-05-09T11:49:06;19.40;99.90
3300;DHT22;1662;49.310;8.134;2023-05-09T11:51:37;19.50;99.90
3300;DHT22;1662;49.310;8.134;2023-05-09T11:54:04;19.60;99.90
3300;DHT22;1662;49.310;8.134;2023-05-09T11:56:31;19.70;99.90
3300;DHT22;1662;49.310;8.134;2023-05-09T11:58:58;18.90;99.90
3300;DHT22;1662;49.310;8.134;2023-05-09T12:01:24;19.90;99.90
3300;DHT22;1662;49.310;8.134;2023-05-09T12:03:50;19.90;99.90
3300;DHT22;1662;49.310;8.134;2023-05-09T12:06:17;19.90;99.90
3300;DHT22;1662;49.310;8.134;2023-05-09T12:08:46;19.90;99.90
3300;DHT22;1662;49.310;8.134;2023-05-09T12:11:13;19.80;99.90
3300;DHT22;1662;49.310;8.134;2023-05-09T12:13:49;19.90;99.90
3300;DHT22;1662;49.310;8.134;2023-05-09T12:16:17;19.80;99.90
3300;DHT22;1662;49.310;8.134;2023-05-09T12:18:50;19.80;99.90
3300;DHT22;1662;49.310;8.134;2023-05-09T12:21:17;19.80;99.90
3300;DHT22;1662;49.310;8.134;2023-05-09T12:23:45;19.70;99.90
3300;DHT22;1662;49.310;8.134;2023-05-09T12:26:10;19.70;99.90
3300;DHT22;1662;49.310;8.134;2023-05-09T12:28:37;19.80;99.90
3300;DHT22;1662;49.310;8.134;2023-05-09T12:31:04;19.80;99.90
3300;DHT22;1662;49.310;8.134;2023-05-09T12:33:30;19.90;99.90
3300;DHT22;1662;49.310;8.134;2023-05-09T12:38:30;20.00;99.90
3300;DHT22;1662;49.310;8.134;2023-05-09T12:41:05;20.10;99.90
3300;DHT22;1662;49.310;8.134;2023-05-09T12:43:36;20.10;99.90
3300;DHT22;1662;49.310;8.134;2023-05-09T12:46:02;20.20;99.90
3300;DHT22;1662;49.310;8.134;2023-05-09T12:48:37;20.30;99.90
3300;DHT22;1662;49.310;8.134;2023-05-09T12:51:06;20.50;99.90
3300;DHT22;1662;49.310;8.134;2023-05-09T12:53:40;20.70;99.90
3300;DHT22;1662;49.310;8.134;2023-05-09T12:56:19;20.80;99.90
3300;DHT22;1662;49.310;8.134;2023-05-09T12:58:53;20.80;99.90
3300;DHT22;1662;49.310;8.134;2023-05-09T13:01:21;20.70;99.90
3300;DHT22;1662;49.310;8.134;2023-05-09T13:03:52;20.60;99.90
3300;DHT22;1662;49.310;8.134;2023-05-09T13:06:18;20.50;99.90
3300;DHT22;1662;49.310;8.134;2023-05-09T13:08:50;20.40;99.90
3300;DHT22;1662;49.310;8.134;2023-05-09T13:11:20;20.30;99.90
3300;DHT22;1662;49.310;8.134;2023-05-09T13:13:49;20.30;99.90
3300;DHT22;1662;49.310;8.134;2023-05-09T13:16:14;20.20;99.90
3300;DHT22;1662;49.310;8.134;2023-05-09T13:18:40;20.10;99.90
3300;DHT22;1662;49.310;8.134;2023-05-09T13:21:05;20.10;99.90
3300;DHT22;1662;49.310;8.134;2023-05-09T13:23:31;20.20;99.90
3300;DHT22;1662;49.310;8.134;2023-05-09T13:25:59;19.90;99.90
3300;DHT22;1662;49.310;8.134;2023-05-09T13:28:25;19.90;99.90
3300;DHT22;1662;49.310;8.134;2023-05-09T13:30:50;19.90;99.90
3300;DHT22;1662;49.310;8.134;2023-05-09T13:33:16;19.90;99.90
3300;DHT22;1662;49.310;8.134;2023-05-09T13:35:42;19.90;99.90
3300;DHT22;1662;49.310;8.134;2023-05-09T13:38:07;19.90;99.90
3300;DHT22;1662;49.310;8.134;2023-05-09T13:40:33;19.90;99.90
3300;DHT22;1662;49.310;8.134;2023-05-09T13:42:59;19.90;99.90
3300;DHT22;1662;49.310;8.134;2023-05-09T13:45:25;19.90;99.90
3300;DHT22;1662;49.310;8.134;2023-05-09T13:47:50;19.90;99.90
3300;DHT22;1662;49.310;8.134;2023-05-09T13:50:16;19.90;99.90
3300;DHT22;1662;49.310;8.134;2023-05-09T13:52:42;19.90;99.90
3300;DHT22;1662;49.310;8.134;2023-05-09T13:55:10;19.90;99.90
3300;DHT22;1662;49.310;8.134;2023-05-09T13:57:36;19.80;99.90
3300;DHT22;1662;49.310;8.134;2023-05-09T14:00:01;19.90;99.90
3300;DHT22;1662;49.310;8.134;2023-05-09T14:02:28;19.90;99.90
3300;DHT22;1662;49.310;8.134;2023-05-09T14:04:54;19.90;99.90
3300;DHT22;1662;49.310;8.134;2023-05-09T14:07:19;19.70;99.90
3300;DHT22;1662;49.310;8.134;2023-05-09T14:09:46;19.70;99.90
3300;DHT22;1662;49.310;8.134;2023-05-09T14:12:12;19.80;99.90
3300;DHT22;1662;49.310;8.134;2023-05-09T14:14:37;19.80;99.90
3300;DHT22;1662;49.310;8.134;2023-05-09T14:17:03;19.80;99.90
3300;DHT22;1662;49.310;8.134;2023-05-09T14:19:28;19.70;99.90
3300;DHT22;1662;49.310;8.134;2023-05-09T14:21:57;19.70;99.90
3300;DHT22;1662;49.310;8.134;2023-05-09T14:24:22;19.70;99.90
3300;DHT22;1662;49.310;8.134;2023-05-09T14:26:50;19.80;99.90
3300;DHT22;1662;49.310;8.134;2023-05-09T14:29:16;19.70;99.90
3300;DHT22;1662;49.310;8.134;2023-05-09T14:31:41;19.60;99.90
3300;DHT22;1662;49.310;8.134;2023-05-09T14:34:07;19.60;99.90
3300;DHT22;1662;49.310;8.134;2023-05-09T14:36:33;19.60;99.90
3300;DHT22;1662;49.310;8.134;2023-05-09T14:38:59;19.60;99.90
3300;DHT22;1662;49.310;8.134;2023-05-09T14:41:27;19.50;99.90
3300;DHT22;1662;49.310;8.134;2023-05-09T14:43:52;19.50;99.90
3300;DHT22;1662;49.310;8.134;2023-05-09T14:46:18;19.60;99.90
3300;DHT22;1662;49.310;8.134;2023-05-09T14:48:44;19.50;99.90
3300;DHT22;1662;49.310;8.134;2023-05-09T14:51:09;19.50;99.90
3300;DHT22;1662;49.310;8.134;2023-05-09T14:53:36;19.60;99.90
3300;DHT22;1662;49.310;8.134;2023-05-09T14:56:06;19.50;99.90
3300;DHT22;1662;49.310;8.134;2023-05-09T14:58:32;19.50;99.90
3300;DHT22;1662;49.310;8.134;2023-05-09T15:01:00;19.50;99.90
3300;DHT22;1662;49.310;8.134;2023-05-09T15:03:26;19.40;99.90
3300;DHT22;1662;49.310;8.134;2023-05-09T15:05:52;19.40;99.90
3300;DHT22;1662;49.310;8.134;2023-05-09T15:08:18;19.40;99.90
3300;DHT22;1662;49.310;8.134;2023-05-09T15:10:44;19.50;99.90
3300;DHT22;1662;49.310;8.134;2023-05-09T15:13:10;19.50;99.90
3300;DHT22;1662;49.310;8.134;2023-05-09T15:15:35;19.50;99.90
3300;DHT22;1662;49.310;8.134;2023-05-09T15:18:05;19.50;99.90
3300;DHT22;1662;49.310;8.134;2023-05-09T15:20:34;19.40;99.90
3300;DHT22;1662;49.310;8.134;2023-05-09T15:23:00;19.40;99.90
3300;DHT22;1662;49.310;8.134;2023-05-09T15:25:25;19.40;99.90
3300;DHT22;1662;49.310;8.134;2023-05-09T15:27:52;19.50;99.90
3300;DHT22;1662;49.310;8.134;2023-05-09T15:30:17;19.50;99.90
3300;DHT22;1662;49.310;8.134;2023-05-09T15:32:43;19.40;99.90
3300;DHT22;1662;49.310;8.134;2023-05-09T15:35:09;19.40;99.90
3300;DHT22;1662;49.310;8.134;2023-05-09T15:37:37;19.40;99.90
3300;DHT22;1662;49.310;8.134;2023-05-09T15:40:03;19.40;99.90
3300;DHT22;1662;49.310;8.134;2023-05-09T15:42:28;19.40;99.90
3300;DHT22;1662;49.310;8.134;2023-05-09T15:44:54;19.40;99.90
3300;DHT22;1662;49.310;8.134;2023-05-09T15:47:20;19.30;99.90
3300;DHT22;1662;49.310;8.134;2023-05-09T15:49:45;19.40;99.90
3300;DHT22;1662;49.310;8.134;2023-05-09T15:52:11;19.40;99.90
3300;DHT22;1662;49.310;8.134;2023-05-09T15:54:37;19.40;99.90
3300;DHT22;1662;49.310;8.134;2023-05-09T15:57:03;19.30;99.90
3300;DHT22;1662;49.310;8.134;2023-05-09T15:59:29;19.30;99.90
3300;DHT22;1662;49.310;8.134;2023-05-09T16:01:55;19.40;99.90
3300;DHT22;1662;49.310;8.134;2023-05-09T16:04:21;19.30;99.90
3300;DHT22;1662;49.310;8.134;2023-05-09T16:06:46;19.20;99.90
3300;DHT22;1662;49.310;8.134;2023-05-09T16:09:13;19.20;99.90
3300;DHT22;1662;49.310;8.134;2023-05-09T16:11:40;19.20;99.90
3300;DHT22;1662;49.310;8.134;2023-05-09T16:14:06;19.20;99.90
3300;DHT22;1662;49.310;8.134;2023-05-09T16:16:36;19.10;99.90
3300;DHT22;1662;49.310;8.134;2023-05-09T16:19:01;19.10;99.90